Terminal Aerodrome Forecast
Issued by NWS

Current Version | Previous Version | Text Only | Print | Product List | Glossary On
Versions: 1 2 3 4 5 6 7 8 9 10 11 12 13 14 15 16 17 18 19 20
372
FTUS43 KBIS 220825 AAA
TAFDIK
TAF AMD
KDIK 220825Z 2208/2306 19011KT P6SM SCT120 SCT220
     FM221300 22011KT P6SM SCT080 BKN110 WS020/28035KT
     FM221500 26014G19KT P6SM FEW140 WS020/29045KT
     FM221700 29018G28KT P6SM SKC
     FM230000 30009KT P6SM FEW300=

USA.gov is the U.S. government's official web portal to all federal, state and local government web resources and services.